Time;durP1;ratioP1;P1;durP2;ratioP2;P2;SDS_P1;SDS_P2;PMS_P1;PMS_P2;Temp;Humidity;BMP_temperature;BMP_pressure;BME280_temperature;BME280_humidity;BME280_pressure;Samples;Min_cycle;Max_cycle;Signal;HPM_P1;HPM_P2
2022/01/21 00:00:09;;;;;;;0.50;0.10;;;;;;;;;;5010087;28;20484;-78
2022/01/21 00:02:41;;;;;;;0.50;0.10;;;3.90;1.00;;;;;;4999155;28;20443;-79
2022/01/21 00:05:11;;;;;;;0.87;0.87;;;;;;;;;;4998108;28;20468;-78
2022/01/21 00:07:39;;;;;;;0.50;0.20;;;4.00;1.00;;;;;;5002625;28;20454;-78
2022/01/21 00:10:10;;;;;;;0.50;0.10;;;4.00;1.00;;;;;;5011371;28;20476;-78
2022/01/21 00:12:39;;;;;;;0.50;0.10;;;;;;;;;;5020821;28;20461;-79
2022/01/21 00:15:11;;;;;;;0.50;0.10;;;4.00;1.00;;;;;;5017969;28;20520;-78
2022/01/21 00:17:40;;;;;;;0.50;0.10;;;;;;;;;;5017707;28;20986;-78
2022/01/21 00:31:20;;;;;;;0.50;0.10;;;;;;;;;;4998560;28;20483;-78
2022/01/21 00:33:48;;;;;;;0.50;0.10;;;3.80;1.00;;;;;;4999188;28;20510;-78
2022/01/21 00:36:20;;;;;;;0.50;0.10;;;;;;;;;;4999002;28;20449;-78
2022/01/21 00:38:48;;;;;;;0.50;0.10;;;3.70;1.00;;;;;;4996415;28;20462;-78
2022/01/21 00:41:21;;;;;;;0.50;0.10;;;3.70;1.00;;;;;;4997356;28;20804;-77
2022/01/21 00:43:52;;;;;;;0.50;0.10;;;3.70;1.00;;;;;;4997052;28;20482;-77
2022/01/21 00:46:22;;;;;;;0.50;0.20;;;;;;;;;;4996710;28;20578;-77
2022/01/21 00:48:51;;;;;;;0.60;0.53;;;3.70;1.00;;;;;;4997003;28;20452;-77
2022/01/21 00:51:19;;;;;;;0.50;0.10;;;3.70;1.00;;;;;;4995981;28;20566;-77
2022/01/21 00:53:48;;;;;;;0.50;0.20;;;3.70;1.00;;;;;;4996626;28;20446;-77
2022/01/21 00:56:16;;;;;;;0.50;0.10;;;;;;;;;;4997447;28;20447;-78
2022/01/21 00:58:45;;;;;;;0.50;0.10;;;3.60;1.00;;;;;;4996610;28;20438;-78
2022/01/21 01:01:14;;;;;;;0.50;0.10;;;;;;;;;;4996108;28;20820;-77
2022/01/21 01:03:44;;;;;;;0.60;0.27;;;;;;;;;;4995804;28;20458;-78
2022/01/21 01:06:13;;;;;;;0.50;0.10;;;;;;;;;;4997387;28;20548;-78
2022/01/21 01:08:51;;;;;;;0.60;0.40;;;;;;;;;;5006962;28;20538;-77
2022/01/21 01:11:32;;;;;;;0.50;0.10;;;;;;;;;;5005920;28;20461;-77
2022/01/21 01:20:00;;;;;;;0.60;0.40;;;3.10;1.00;;;;;;4996625;28;20516;-77
2022/01/21 01:22:39;;;;;;;0.60;0.27;;;3.10;1.00;;;;;;4996055;28;20738;-77
2022/01/21 01:28:00;;;;;;;0.50;0.10;;;3.10;1.00;;;;;;4997027;28;21212;-77
2022/01/21 01:30:33;;;;;;;0.50;0.10;;;3.10;1.00;;;;;;4995531;28;20546;-79
2022/01/21 01:33:07;;;;;;;0.50;0.10;;;3.80;1.00;;;;;;4995422;28;20475;-78
2022/01/21 01:35:40;;;;;;;1.57;0.67;;;;;;;;;;4996239;28;20448;-78
2022/01/21 01:41:01;;;;;;;0.50;0.10;;;3.10;1.00;;;;;;4995435;28;20868;-79
2022/01/21 01:49:29;;;;;;;0.50;0.10;;;3.20;1.00;;;;;;4995012;28;20478;-79
2022/01/21 01:52:03;;;;;;;0.50;0.10;;;3.10;1.00;;;;;;4996165;28;20485;-77
2022/01/21 01:54:33;;;;;;;0.70;0.60;;;3.10;1.00;;;;;;4995314;28;20473;-77
2022/01/21 01:57:01;;;;;;;0.50;0.10;;;3.10;1.00;;;;;;4995763;28;20539;-77
2022/01/21 01:59:30;;;;;;;0.50;0.10;;;3.10;1.00;;;;;;4994730;28;20814;-78
2022/01/21 02:02:00;;;;;;;0.50;0.10;;;3.10;1.00;;;;;;4995908;28;20486;-79
2022/01/21 02:04:35;;;;;;;0.50;0.30;;;3.10;1.00;;;;;;4994634;28;20446;-78
2022/01/21 02:07:08;;;;;;;1.20;1.10;;;;;;;;;;4994367;28;20481;-78
2022/01/21 02:09:40;;;;;;;0.50;0.10;;;3.20;1.00;;;;;;4995047;28;20472;-78
2022/01/21 02:12:09;;;;;;;0.50;0.10;;;3.20;1.00;;;;;;4995329;28;20873;-77
2022/01/21 02:14:46;;;;;;;0.50;0.10;;;3.20;1.00;;;;;;4994329;28;20453;-77
2022/01/21 02:21:28;;;;;;;1.73;1.40;;;3.20;1.00;;;;;;4995865;28;20886;-77
2022/01/21 02:23:06;;;;;;;0.60;0.37;;;3.10;1.00;;;;;;4994876;28;21010;-78
2022/01/21 02:25:37;;;;;;;0.50;0.10;;;3.10;1.00;;;;;;4994847;28;20541;-78
2022/01/21 02:28:14;;;;;;;0.50;0.10;;;;;;;;;;4994621;28;20531;-78
2022/01/21 02:30:53;;;;;;;0.50;0.10;;;3.10;1.00;;;;;;4994720;28;20512;-77
2022/01/21 02:33:25;;;;;;;0.50;0.10;;;3.00;1.00;;;;;;4994744;28;20537;-79
2022/01/21 02:35:57;;;;;;;0.50;0.10;;;2.90;1.00;;;;;;4994311;28;20493;-77
2022/01/21 02:38:28;;;;;;;0.50;0.10;;;3.10;1.00;;;;;;4995292;28;20492;-78
2022/01/21 02:41:00;;;;;;;0.50;0.10;;;;;;;;;;4994817;28;20465;-77
2022/01/21 02:43:31;;;;;;;0.50;0.17;;;3.00;1.00;;;;;;4998697;28;20448;-78
2022/01/21 02:46:06;;;;;;;0.50;0.20;;;;;;;;;;5015376;28;20531;-78
2022/01/21 02:48:37;;;;;;;0.70;0.40;;;;;;;;;;5013984;28;20507;-78
2022/01/21 02:51:10;;;;;;;0.50;0.30;;;3.00;1.00;;;;;;5014117;28;20481;-78
2022/01/21 02:56:29;;;;;;;0.50;0.10;;;3.00;1.00;;;;;;5013531;28;20460;-79
2022/01/21 02:58:58;;;;;;;0.77;0.47;;;;;;;;;;4998620;28;20540;-78
2022/01/21 03:01:27;;;;;;;0.60;0.30;;;;;;;;;;4997921;28;20465;-78
2022/01/21 03:03:58;;;;;;;1.00;0.50;;;;;;;;;;5001754;28;20944;-78
2022/01/21 03:06:26;;;;;;;0.50;0.20;;;;;;;;;;4999660;28;20448;-78
2022/01/21 03:09:00;;;;;;;0.50;0.10;;;3.00;1.00;;;;;;4999220;28;20449;-78
2022/01/21 03:11:29;;;;;;;0.50;0.10;;;3.00;1.00;;;;;;5001820;28;20511;-79
2022/01/21 03:13:58;;;;;;;0.50;0.10;;;;;;;;;;5019463;28;20940;-78
2022/01/21 03:16:27;;;;;;;1.13;1.03;;;;;;;;;;5018928;28;20452;-78
2022/01/21 03:18:55;;;;;;;0.60;0.43;;;;;;;;;;5019417;28;20455;-78
2022/01/21 03:21:24;;;;;;;6.90;0.87;;;;;;;;;;5019161;28;20467;-78
2022/01/21 03:23:54;;;;;;;0.50;0.10;;;2.90;1.00;;;;;;5019013;28;20872;-78
2022/01/21 03:26:25;;;;;;;0.50;0.10;;;;;;;;;;5008849;28;21030;-77
2022/01/21 03:28:55;;;;;;;0.50;0.10;;;3.00;1.00;;;;;;5011124;28;20492;-77
2022/01/21 03:31:29;;;;;;;0.50;0.30;;;3.00;1.00;;;;;;5012082;28;20473;-77
2022/01/21 03:34:05;;;;;;;0.50;0.20;;;;;;;;;;5001002;28;20954;-77
2022/01/21 03:36:35;;;;;;;0.50;0.10;;;;;;;;;;5000591;28;20863;-78
2022/01/21 03:39:05;;;;;;;0.50;0.20;;;;;;;;;;5000479;28;20449;-77
2022/01/21 03:41:35;;;;;;;0.50;0.30;;;;;;;;;;5019460;28;20472;-78
2022/01/21 03:44:04;;;;;;;1.17;0.87;;;3.00;1.00;;;;;;5009913;28;20522;-78
2022/01/21 03:46:34;;;;;;;3.80;1.33;;;3.00;1.00;;;;;;5000958;28;20476;-80
2022/01/21 03:49:12;;;;;;;0.50;0.30;;;;;;;;;;4999756;28;20480;-77
2022/01/21 03:51:40;;;;;;;1.00;0.80;;;3.00;1.00;;;;;;5069749;22;20483;-73
2022/01/21 03:54:08;;;;;;;0.50;0.20;;;2.90;1.00;;;;;;5033835;28;20435;-73
2022/01/21 03:56:39;;;;;;;0.50;0.10;;;2.90;1.00;;;;;;5033872;28;20443;-73
2022/01/21 03:59:07;;;;;;;0.50;0.10;;;2.90;1.00;;;;;;5051698;28;20447;-74
2022/01/21 04:01:35;;;;;;;0.53;0.30;;;3.00;1.00;;;;;;5054367;28;20553;-74
2022/01/21 04:04:04;;;;;;;0.50;0.10;;;3.00;1.00;;;;;;5053532;28;20929;-73
2022/01/21 04:06:31;;;;;;;0.70;0.57;;;3.00;1.00;;;;;;5053937;28;20998;-72
2022/01/21 04:08:59;;;;;;;1.23;1.13;;;3.10;1.00;;;;;;5054035;28;20506;-74
2022/01/21 04:11:27;;;;;;;1.27;0.40;;;3.00;1.00;;;;;;5049276;28;20498;-74
2022/01/21 04:13:56;;;;;;;0.50;0.10;;;2.90;1.00;;;;;;5033501;28;20953;-73
2022/01/21 04:16:24;;;;;;;1.37;0.77;;;3.00;1.00;;;;;;5033122;28;20946;-73
2022/01/21 04:18:52;;;;;;;24.37;1.90;;;3.00;1.00;;;;;;5033311;28;20443;-74
2022/01/21 04:21:21;;;;;;;0.60;0.20;;;3.00;1.00;;;;;;5033249;28;20473;-72
2022/01/21 04:23:49;;;;;;;1.10;0.70;;;3.00;1.00;;;;;;5033869;28;20436;-72
2022/01/21 04:26:17;;;;;;;0.50;0.10;;;3.00;1.00;;;;;;5046038;28;20533;-72
2022/01/21 04:28:45;;;;;;;0.50;0.10;;;2.90;1.00;;;;;;5054296;28;20493;-73
2022/01/21 04:31:14;;;;;;;0.67;0.50;;;6.80;1.00;;;;;;5053045;28;20468;-72
2022/01/21 04:33:42;;;;;;;0.80;0.60;;;3.00;1.00;;;;;;5053923;28;20818;-72
2022/01/21 04:36:10;;;;;;;0.50;0.10;;;3.00;1.00;;;;;;5054677;28;20447;-72
2022/01/21 04:38:38;;;;;;;0.50;0.20;;;3.00;1.00;;;;;;5054350;28;20438;-74
2022/01/21 04:41:21;;;;;;;0.50;0.10;;;3.00;1.00;;;;;;5034634;28;21009;-73
2022/01/21 04:49:36;;;;;;;0.50;0.10;;;3.00;1.00;;;;;;5032552;28;21032;-73
2022/01/21 04:52:05;;;;;;;0.50;0.13;;;3.10;1.00;;;;;;5032660;28;21030;-73
2022/01/21 04:54:34;;;;;;;0.50;0.10;;;3.10;1.00;;;;;;5046243;28;20450;-75
2022/01/21 04:57:04;;;;;;;0.50;0.10;;;3.10;1.00;;;;;;5052789;28;20442;-72
2022/01/21 04:59:33;;;;;;;0.60;0.40;;;3.10;1.00;;;;;;5052223;28;20972;-72
2022/01/21 05:02:03;;;;;;;0.67;0.30;;;3.10;1.00;;;;;;5052516;28;20480;-72
2022/01/21 05:04:31;;;;;;;0.50;0.10;;;3.10;1.00;;;;;;5052515;28;20449;-72
2022/01/21 05:07:02;;;;;;;0.50;0.10;;;3.10;1.00;;;;;;5031378;28;20457;-73
2022/01/21 05:09:32;;;;;;;0.50;0.10;;;3.10;1.00;;;;;;5037235;28;20479;-71
2022/01/21 05:12:02;;;;;;;0.50;0.10;;;3.10;1.00;;;;;;5031879;28;20911;-73
2022/01/21 05:14:48;;;;;;;0.60;0.23;;;3.10;1.00;;;;;;5032417;28;20450;-73
2022/01/21 05:17:17;;;;;;;1.17;1.07;;;3.10;1.00;;;;;;5032091;28;21004;-72
2022/01/21 05:19:45;;;;;;;1.80;1.70;;;3.00;1.00;;;;;;5032152;28;20452;-72
2022/01/21 05:22:13;;;;;;;0.50;0.20;;;2.90;1.00;;;;;;5031922;28;20446;-72
2022/01/21 05:24:40;;;;;;;0.87;0.67;;;2.90;1.00;;;;;;5031133;28;20443;-73
2022/01/21 05:27:11;;;;;;;0.87;0.87;;;2.90;1.00;;;;;;5032219;28;20455;-73
2022/01/21 05:29:40;;;;;;;0.50;0.20;;;2.90;1.00;;;;;;5033371;28;20483;-72
2022/01/21 05:32:09;;;;;;;0.50;0.10;;;2.80;1.00;;;;;;5030080;28;20475;-72
2022/01/21 05:34:38;;;;;;;0.50;0.10;;;3.40;1.00;;;;;;5032805;28;20498;-72
2022/01/21 05:37:08;;;;;;;0.50;0.10;;;2.80;1.00;;;;;;5031594;28;20444;-73
2022/01/21 05:39:36;;;;;;;2.73;0.97;;;2.90;1.00;;;;;;5032040;28;20439;-74
2022/01/21 05:42:06;;;;;;;3.23;2.93;;;2.90;1.00;;;;;;5031762;28;20467;-74
2022/01/21 05:47:20;;;;;;;0.50;0.10;;;2.80;1.00;;;;;;5031233;28;20453;-73
2022/01/21 05:49:54;;;;;;;0.57;0.30;;;2.80;1.00;;;;;;5031903;28;20475;-73
2022/01/21 05:52:32;;;;;;;0.83;0.77;;;2.80;1.00;;;;;;5031709;28;20467;-72
2022/01/21 05:55:00;;;;;;;0.50;0.10;;;2.80;1.00;;;;;;5031425;28;20461;-74
2022/01/21 05:57:30;;;;;;;1.33;1.23;;;2.80;1.00;;;;;;5031925;28;20439;-73
2022/01/21 05:59:58;;;;;;;2.73;0.67;;;2.80;1.00;;;;;;5047746;28;20535;-73
2022/01/21 06:02:26;;;;;;;1.80;1.70;;;;;;;;;;5051735;28;20466;-72
2022/01/21 06:04:56;;;;;;;0.60;0.50;;;2.80;1.00;;;;;;5050983;28;20443;-72
2022/01/21 06:07:24;;;;;;;0.83;0.53;;;2.70;1.00;;;;;;5051505;28;20494;-73
2022/01/21 06:09:51;;;;;;;3.37;1.80;;;2.70;1.00;;;;;;5051053;28;20484;-73
2022/01/21 06:12:19;;;;;;;0.50;0.20;;;2.70;1.00;;;;;;5047735;28;20454;-74
2022/01/21 06:14:47;;;;;;;0.90;0.77;;;2.70;1.00;;;;;;5031003;28;20453;-72
2022/01/21 06:17:15;;;;;;;1.70;1.13;;;2.70;1.00;;;;;;5031369;28;20451;-74
2022/01/21 06:19:44;;;;;;;0.70;0.60;;;;;;;;;;5030253;28;20447;-73
2022/01/21 06:22:15;;;;;;;0.50;0.10;;;2.70;1.00;;;;;;5023706;28;20457;-73
2022/01/21 06:24:43;;;;;;;0.50;0.10;;;2.70;1.00;;;;;;5033403;28;20471;-72
2022/01/21 06:27:11;;;;;;;0.50;0.20;;;2.80;1.00;;;;;;5040885;28;20456;-72
2022/01/21 06:29:39;;;;;;;0.90;0.60;;;2.90;1.00;;;;;;5031653;28;20479;-73
2022/01/21 06:32:10;;;;;;;3.13;2.93;;;2.90;1.00;;;;;;5031221;28;20463;-74
2022/01/21 06:34:37;;;;;;;0.50;0.10;;;3.00;1.00;;;;;;5032010;28;20809;-75
2022/01/21 06:37:05;;;;;;;0.60;0.30;;;3.00;1.00;;;;;;5032198;28;20996;-73
2022/01/21 06:39:34;;;;;;;1.47;0.70;;;2.90;1.00;;;;;;5045000;28;20443;-73
2022/01/21 06:42:02;;;;;;;0.50;0.30;;;2.90;1.00;;;;;;5045809;28;20455;-73
2022/01/21 06:44:30;;;;;;;0.50;0.10;;;2.90;1.00;;;;;;5043466;28;20435;-74
2022/01/21 06:46:58;;;;;;;2.20;1.70;;;3.00;1.00;;;;;;5039349;28;20469;-74
2022/01/21 06:49:26;;;;;;;4.40;2.00;;;3.00;1.00;;;;;;5034306;28;20490;-72
2022/01/21 06:51:54;;;;;;;0.70;0.60;;;2.90;1.00;;;;;;5031863;28;20826;-75
2022/01/21 06:54:22;;;;;;;0.50;0.10;;;2.90;1.00;;;;;;5034724;28;20440;-76
2022/01/21 06:56:51;;;;;;;4.20;0.97;;;3.00;1.00;;;;;;5034668;28;21040;-73
2022/01/21 06:59:19;;;;;;;2.40;1.90;;;3.00;1.00;;;;;;5033038;28;20570;-73
2022/01/21 07:01:47;;;;;;;0.50;0.30;;;2.90;1.00;;;;;;5034497;28;20558;-74
2022/01/21 07:04:15;;;;;;;0.60;0.40;;;2.90;1.00;;;;;;5032214;28;20471;-73
2022/01/21 07:06:43;;;;;;;1.00;0.80;;;2.90;1.00;;;;;;5031776;28;20448;-73
2022/01/21 07:09:11;;;;;;;0.53;0.30;;;2.90;1.00;;;;;;5034952;28;20479;-75
2022/01/21 07:11:39;;;;;;;0.50;0.17;;;2.90;1.00;;;;;;5034479;28;20465;-75
2022/01/21 07:14:09;;;;;;;0.60;0.60;;;2.90;1.00;;;;;;5034110;28;20533;-73
2022/01/21 07:16:36;;;;;;;0.50;0.20;;;2.90;1.00;;;;;;5034853;28;20454;-76
2022/01/21 07:19:04;;;;;;;1.47;1.33;;;3.00;1.00;;;;;;5033986;28;20451;-76
2022/01/21 07:21:32;;;;;;;5.00;2.70;;;3.00;1.00;;;;;;5034699;28;20463;-73
2022/01/21 07:24:00;;;;;;;1.00;0.30;;;3.00;1.00;;;;;;5034198;28;20953;-74
2022/01/21 07:26:29;;;;;;;2.27;2.17;;;;;;;;;;5034483;28;20439;-77
2022/01/21 07:28:57;;;;;;;0.60;0.37;;;2.90;1.00;;;;;;5037299;28;20485;-74
2022/01/21 07:31:26;;;;;;;0.60;0.50;;;;;;;;;;5053259;28;20475;-73
2022/01/21 07:33:55;;;;;;;2.83;1.33;;;;;;;;;;5034992;28;20523;-73
2022/01/21 07:36:23;;;;;;;0.60;0.20;;;3.10;1.00;;;;;;5034521;28;20455;-75
2022/01/21 07:38:51;;;;;;;0.50;0.13;;;3.20;1.00;;;;;;5034585;28;20449;-73
2022/01/21 07:41:18;;;;;;;3.07;0.77;;;3.20;1.00;;;;;;5034634;28;20462;-73
2022/01/21 07:43:47;;;;;;;1.40;1.10;;;;;;;;;;5044830;28;20971;-73
2022/01/21 07:46:17;;;;;;;1.07;0.47;;;3.20;1.00;;;;;;5056168;28;20446;-74
2022/01/21 07:48:47;;;;;;;4.93;0.73;;;3.20;1.00;;;;;;5055250;28;20456;-74
2022/01/21 07:51:14;;;;;;;2.37;2.17;;;3.20;1.00;;;;;;5036671;28;20483;-74
2022/01/21 07:53:42;;;;;;;0.50;0.10;;;3.20;1.00;;;;;;5032587;28;20479;-74
2022/01/21 07:56:10;;;;;;;5.43;2.53;;;3.20;1.00;;;;;;5030698;28;20474;-73
2022/01/21 07:58:38;;;;;;;0.50;0.10;;;;;;;;;;5032314;28;20452;-74
2022/01/21 08:01:07;;;;;;;0.50;0.10;;;3.30;1.00;;;;;;5034521;28;20562;-73
2022/01/21 08:03:35;;;;;;;2.30;1.43;;;3.30;1.00;;;;;;5033344;28;20436;-74
2022/01/21 08:06:05;;;;;;;0.50;0.10;;;3.30;1.00;;;;;;5031769;28;21338;-74
2022/01/21 08:08:33;;;;;;;1.33;1.10;;;3.20;1.00;;;;;;5033993;28;20953;-74
2022/01/21 08:11:01;;;;;;;2.20;2.10;;;3.30;1.00;;;;;;5032447;28;20480;-74
2022/01/21 08:13:29;;;;;;;0.90;0.57;;;3.30;1.00;;;;;;5033261;28;20444;-74
2022/01/21 08:15:57;;;;;;;15.80;1.27;;;3.30;1.00;;;;;;5034392;28;21020;-74
2022/01/21 08:18:24;;;;;;;0.60;0.40;;;3.30;1.00;;;;;;5034256;28;20459;-77
2022/01/21 08:20:52;;;;;;;3.03;0.40;;;3.20;1.00;;;;;;5033225;28;20465;-75
2022/01/21 08:23:22;;;;;;;0.60;0.50;;;3.30;1.00;;;;;;5035036;28;20444;-76
2022/01/21 08:25:51;;;;;;;0.87;0.37;;;5.20;1.00;;;;;;5038306;28;20517;-73
2022/01/21 08:28:19;;;;;;;1.83;1.27;;;3.30;1.00;;;;;;5035707;28;20479;-73
2022/01/21 08:30:47;;;;;;;0.60;0.40;;;3.30;1.00;;;;;;5032760;28;20490;-74
2022/01/21 08:33:15;;;;;;;1.27;1.07;;;3.30;1.00;;;;;;5033530;28;20467;-74
2022/01/21 08:35:45;;;;;;;1.23;1.13;;;3.30;1.00;;;;;;5033503;28;20868;-75
2022/01/21 08:38:13;;;;;;;1.27;1.17;;;3.30;1.00;;;;;;5032506;28;20441;-74
2022/01/21 08:40:42;;;;;;;2.43;2.17;;;3.30;1.00;;;;;;5032737;28;20972;-73
2022/01/21 08:43:11;;;;;;;1.57;1.47;;;3.40;1.00;;;;;;5033138;28;20452;-73
2022/01/21 08:45:39;;;;;;;1.43;1.07;;;3.40;1.00;;;;;;5032572;28;21044;-73
2022/01/21 08:48:07;;;;;;;1.50;1.40;;;3.40;1.00;;;;;;5032240;28;20446;-73
2022/01/21 08:50:36;;;;;;;1.60;0.77;;;;;;;;;;5032652;28;20483;-73
2022/01/21 08:53:36;;;;;;;2.30;2.20;;;3.40;1.00;;;;;;5033053;28;20451;-73
2022/01/21 08:55:59;;;;;;;0.50;0.10;;;3.40;1.00;;;;;;5031778;28;20437;-75
2022/01/21 08:58:27;;;;;;;2.33;0.90;;;3.30;1.00;;;;;;5031301;28;20452;-73
2022/01/21 09:00:55;;;;;;;2.53;2.33;;;;;;;;;;5032139;28;20984;-75
2022/01/21 09:03:24;;;;;;;0.60;0.37;;;3.30;1.00;;;;;;5030990;28;20462;-76
2022/01/21 09:05:51;;;;;;;0.80;0.50;;;3.30;1.00;;;;;;5034810;28;20459;-76
2022/01/21 09:08:23;;;;;;;2.37;0.93;;;3.50;1.00;;;;;;5035569;28;21023;-74
2022/01/21 09:10:51;;;;;;;4.23;2.10;;;3.60;1.00;;;;;;5029946;28;20487;-72
2022/01/21 09:13:22;;;;;;;1.40;1.30;;;3.60;1.00;;;;;;5031912;28;20463;-73
2022/01/21 09:15:50;;;;;;;1.10;1.00;;;3.60;1.00;;;;;;5029704;28;20913;-75
2022/01/21 09:18:20;;;;;;;2.40;0.80;;;3.70;1.00;;;;;;5028772;28;20469;-73
2022/01/21 09:20:49;;;;;;;2.40;1.47;;;3.80;1.00;;;;;;5028841;28;20564;-74
2022/01/21 09:23:17;;;;;;;0.53;0.27;;;;;;;;;;5028978;28;20471;-73
2022/01/21 09:25:45;;;;;;;0.57;0.27;;;3.80;1.00;;;;;;5031236;28;20948;-73
2022/01/21 09:28:13;;;;;;;0.70;0.63;;;3.70;1.00;;;;;;5031647;28;20433;-73
2022/01/21 09:30:42;;;;;;;0.50;0.10;;;3.80;1.00;;;;;;5031092;28;20592;-73
2022/01/21 09:33:10;;;;;;;3.73;1.70;;;3.90;1.00;;;;;;5028983;28;20934;-73
2022/01/21 09:35:38;;;;;;;0.50;0.27;;;3.90;1.00;;;;;;5031575;28;20626;-74
2022/01/21 09:38:06;;;;;;;0.80;0.80;;;4.00;1.00;;;;;;5031449;28;20449;-74
2022/01/21 09:40:45;;;;;;;7.73;3.00;;;4.00;1.00;;;;;;5031607;28;20465;-74
2022/01/21 09:43:13;;;;;;;3.70;1.43;;;4.00;1.00;;;;;;5033547;28;20467;-73
2022/01/21 09:45:43;;;;;;;1.87;0.67;;;4.10;1.00;;;;;;5031685;28;20450;-74
2022/01/21 09:48:12;;;;;;;3.90;2.87;;;4.10;1.00;;;;;;5031293;28;20437;-75
2022/01/21 09:50:42;;;;;;;2.07;0.80;;;4.00;1.00;;;;;;5028055;28;20987;-75
2022/01/21 09:53:12;;;;;;;2.77;1.90;;;4.00;1.00;;;;;;5031358;28;20437;-77
2022/01/21 09:55:41;;;;;;;5.20;4.80;;;3.80;1.00;;;;;;5030425;28;20507;-73
2022/01/21 09:58:09;;;;;;;3.43;1.07;;;3.80;1.00;;;;;;5030600;28;20442;-74
2022/01/21 10:00:37;;;;;;;13.00;1.80;;;3.90;1.00;;;;;;5030490;28;20452;-73
2022/01/21 10:03:07;;;;;;;1.43;1.23;;;;;;;;;;5035258;28;20485;-75
2022/01/21 10:05:36;;;;;;;1.00;1.00;;;3.90;1.00;;;;;;5028662;28;20918;-76
2022/01/21 10:08:07;;;;;;;0.50;0.20;;;4.00;1.00;;;;;;5032721;28;20507;-73
2022/01/21 10:10:35;;;;;;;1.33;1.23;;;4.00;1.00;;;;;;5026282;28;20931;-75
2022/01/21 10:13:03;;;;;;;0.97;0.97;;;4.00;1.00;;;;;;5029601;28;20961;-74
2022/01/21 10:15:31;;;;;;;5.30;0.97;;;4.00;1.00;;;;;;5030173;28;20938;-75
2022/01/21 10:18:01;;;;;;;3.20;2.27;;;4.10;1.00;;;;;;5032085;28;20481;-74
2022/01/21 10:20:56;;;;;;;1.83;1.40;;;4.20;1.00;;;;;;5028648;28;20463;-75
2022/01/21 10:23:24;;;;;;;0.50;0.10;;;4.20;1.00;;;;;;5031083;28;20590;-75
2022/01/21 10:25:59;;;;;;;1.37;0.67;;;5.30;1.00;;;;;;5030796;28;20443;-74
2022/01/21 10:28:27;;;;;;;0.93;0.30;;;4.20;1.00;;;;;;5031222;28;20753;-75
2022/01/21 10:31:06;;;;;;;0.70;0.50;;;4.20;1.00;;;;;;5036201;28;20486;-74
2022/01/21 10:33:39;;;;;;;1.57;0.90;;;4.20;1.00;;;;;;5030120;28;20447;-75
2022/01/21 10:36:10;;;;;;;4.83;0.87;;;4.10;1.00;;;;;;5039173;28;20457;-74
2022/01/21 10:38:43;;;;;;;1.10;0.70;;;4.10;1.00;;;;;;5031560;28;20461;-75
2022/01/21 10:41:14;;;;;;;1.93;1.73;;;4.20;1.00;;;;;;5023957;28;20459;-75
2022/01/21 10:43:42;;;;;;;1.10;1.00;;;4.20;1.00;;;;;;5032388;28;20625;-75
2022/01/21 10:46:16;;;;;;;2.70;2.50;;;4.20;1.00;;;;;;5051219;28;20451;-73
2022/01/21 10:49:01;;;;;;;4.83;1.57;;;4.20;1.00;;;;;;5033186;28;20874;-74
2022/01/21 10:51:32;;;;;;;0.50;0.10;;;4.40;1.00;;;;;;5030971;28;20518;-76
2022/01/21 10:54:14;;;;;;;1.13;1.03;;;4.40;1.00;;;;;;5031075;28;20477;-75
2022/01/21 10:56:43;;;;;;;3.73;2.23;;;4.50;1.00;;;;;;5037785;28;20458;-75
2022/01/21 10:59:10;;;;;;;2.27;1.30;;;4.60;1.00;;;;;;5031324;28;20453;-73
2022/01/21 11:01:38;;;;;;;0.50;0.10;;;4.60;1.00;;;;;;5031288;28;20470;-75
2022/01/21 11:04:11;;;;;;;0.50;0.20;;;4.60;1.00;;;;;;5031357;28;20451;-75
2022/01/21 11:06:53;;;;;;;0.50;0.10;;;4.60;1.00;;;;;;5031237;28;20539;-76
2022/01/21 11:09:22;;;;;;;6.07;5.57;;;4.70;1.00;;;;;;5031262;28;20470;-74
2022/01/21 11:12:06;;;;;;;1.57;0.60;;;4.60;1.00;;;;;;5032508;28;20488;-75
2022/01/21 11:14:35;;;;;;;0.50;0.30;;;4.70;1.00;;;;;;5031448;28;20443;-75
2022/01/21 11:17:08;;;;;;;5.40;2.57;;;4.60;1.00;;;;;;5032433;28;20456;-74
2022/01/21 11:20:01;;;;;;;0.50;0.30;;;4.70;1.00;;;;;;5037986;28;20456;-74
2022/01/21 11:22:31;;;;;;;2.47;2.10;;;4.70;1.00;;;;;;5037467;28;20505;-74
2022/01/21 11:24:59;;;;;;;0.50;0.10;;;4.60;1.00;;;;;;5050883;28;20971;-74
2022/01/21 11:27:27;;;;;;;0.70;0.30;;;4.60;1.00;;;;;;5045107;28;20441;-74
2022/01/21 11:29:55;;;;;;;5.03;1.83;;;4.60;1.00;;;;;;5036505;28;20463;-75
2022/01/21 11:32:23;;;;;;;0.50;0.20;;;4.60;1.00;;;;;;5031762;28;20485;-73
2022/01/21 11:34:52;;;;;;;8.70;3.03;;;4.70;1.00;;;;;;5034149;28;20478;-73
2022/01/21 11:37:19;;;;;;;0.60;0.40;;;4.70;1.00;;;;;;5034096;28;20534;-75
2022/01/21 11:39:51;;;;;;;2.60;1.80;;;4.60;1.00;;;;;;5035916;28;20450;-74
2022/01/21 11:42:19;;;;;;;0.50;0.10;;;4.60;1.00;;;;;;5036674;28;20493;-73
2022/01/21 11:44:52;;;;;;;0.50;0.30;;;;;;;;;;5038111;28;20440;-75
2022/01/21 11:47:38;;;;;;;0.60;0.50;;;4.70;1.00;;;;;;5037279;28;20938;-74
2022/01/21 11:50:07;;;;;;;2.37;1.17;;;4.90;1.00;;;;;;5039492;28;20432;-76
2022/01/21 11:52:44;;;;;;;3.43;0.80;;;4.80;1.00;;;;;;5034328;28;20518;-75
2022/01/21 11:55:32;;;;;;;1.00;0.90;;;4.80;1.00;;;;;;5034272;28;20431;-76
2022/01/21 11:58:15;;;;;;;0.97;0.97;;;4.80;1.00;;;;;;5033197;28;20957;-73
2022/01/21 12:00:43;;;;;;;0.50;0.20;;;4.90;1.00;;;;;;5032489;28;21017;-73
2022/01/21 12:03:11;;;;;;;0.90;0.90;;;4.90;1.00;;;;;;5033710;28;20460;-76
2022/01/21 12:05:39;;;;;;;1.37;0.60;;;4.80;1.00;;;;;;5033548;28;20446;-74
2022/01/21 12:08:07;;;;;;;0.90;0.43;;;;;;;;;;5033226;28;20470;-74
2022/01/21 12:10:39;;;;;;;1.67;1.57;;;4.90;1.00;;;;;;5032822;28;20550;-75
2022/01/21 12:13:20;;;;;;;1.73;1.53;;;4.90;1.00;;;;;;5033326;28;20487;-76
2022/01/21 12:19:23;;;;;;;0.60;0.60;;;5.10;1.00;;;;;;5033797;28;20446;-76
2022/01/21 12:21:52;;;;;;;3.23;1.03;;;5.10;1.00;;;;;;5033433;28;20453;-76
2022/01/21 12:24:46;;;;;;;0.90;0.77;;;5.10;1.00;;;;;;5033356;28;20475;-75
2022/01/21 12:27:16;;;;;;;0.70;0.50;;;5.20;1.00;;;;;;5033568;28;20971;-75
2022/01/21 12:29:44;;;;;;;0.50;0.10;;;5.20;1.00;;;;;;5032900;28;20445;-76
2022/01/21 12:32:20;;;;;;;0.50;0.10;;;5.20;1.00;;;;;;5033122;28;20486;-74
2022/01/21 12:35:15;;;;;;;0.97;0.77;;;5.40;1.00;;;;;;5032998;28;20439;-74
2022/01/21 12:40:59;;;;;;;1.20;0.50;;;5.70;1.00;;;;;;5032166;28;20467;-74
2022/01/21 12:43:47;;;;;;;0.60;0.20;;;5.70;1.00;;;;;;5032887;28;20490;-74
2022/01/21 12:46:17;;;;;;;5.30;0.70;;;5.70;1.00;;;;;;5032266;28;20962;-75
2022/01/21 12:48:47;;;;;;;0.60;0.30;;;5.70;1.00;;;;;;5032562;28;20498;-75
2022/01/21 12:51:20;;;;;;;0.60;0.20;;;5.80;1.00;;;;;;5032603;28;20849;-75
2022/01/21 12:56:43;;;;;;;2.50;1.13;;;5.80;1.00;;;;;;5032533;28;20439;-76
2022/01/21 12:59:17;;;;;;;0.90;0.50;;;5.80;1.00;;;;;;5032767;28;20928;-75
2022/01/21 13:01:46;;;;;;;0.50;0.10;;;5.70;1.00;;;;;;5032614;28;20497;-74
2022/01/21 13:04:26;;;;;;;0.50;0.10;;;5.70;1.00;;;;;;5032711;28;20544;-75
2022/01/21 13:06:59;;;;;;;0.50;0.10;;;5.70;1.00;;;;;;5039833;28;20540;-75
2022/01/21 13:09:51;;;;;;;0.57;0.27;;;5.80;1.00;;;;;;5053000;28;20971;-75
2022/01/21 13:12:23;;;;;;;0.83;0.40;;;;;;;;;;5052884;28;20479;-77
2022/01/21 13:14:56;;;;;;;0.50;0.10;;;5.80;1.00;;;;;;5052674;28;20443;-76
2022/01/21 13:17:24;;;;;;;0.50;0.10;;;7.40;1.00;;;;;;5052738;28;20447;-74
2022/01/21 13:19:53;;;;;;;0.87;0.57;;;5.90;1.00;;;;;;5052222;28;20454;-75
2022/01/21 13:22:23;;;;;;;3.33;0.87;;;5.90;1.00;;;;;;5033255;28;20445;-74
2022/01/21 13:24:58;;;;;;;0.50;0.10;;;5.80;1.00;;;;;;5031695;28;20444;-76
2022/01/21 13:27:27;;;;;;;2.20;1.20;;;5.80;1.00;;;;;;5032795;28;20807;-73
2022/01/21 13:30:03;;;;;;;26.37;3.13;;;5.70;1.00;;;;;;5032025;28;20679;-74
2022/01/21 13:32:31;;;;;;;0.50;0.10;;;5.70;1.00;;;;;;5012545;28;20487;-75
2022/01/21 13:35:10;;;;;;;0.60;0.20;;;5.70;1.00;;;;;;5027775;28;20912;-75
2022/01/21 13:37:39;;;;;;;2.10;1.03;;;5.80;1.00;;;;;;5043287;28;20448;-76
2022/01/21 13:40:09;;;;;;;1.60;0.90;;;5.60;1.00;;;;;;5032071;28;20540;-74
2022/01/21 13:42:39;;;;;;;0.50;0.10;;;5.60;1.00;;;;;;5034530;28;20443;-76
2022/01/21 13:45:11;;;;;;;1.60;0.97;;;5.60;1.00;;;;;;5031382;28;20446;-74
2022/01/21 13:47:42;;;;;;;1.97;0.73;;;5.60;1.00;;;;;;5032041;28;20611;-74
2022/01/21 13:50:13;;;;;;;1.63;0.67;;;5.70;1.00;;;;;;5049063;28;20477;-76
2022/01/21 13:52:43;;;;;;;0.50;0.10;;;5.70;1.00;;;;;;5030308;28;20490;-74
2022/01/21 13:55:25;;;;;;;0.90;0.70;;;5.70;1.00;;;;;;5031055;28;20445;-76
2022/01/21 13:57:57;;;;;;;0.60;0.60;;;5.80;1.00;;;;;;5027956;28;20564;-76
2022/01/21 14:00:31;;;;;;;0.60;0.10;;;6.30;1.00;;;;;;5029248;28;20825;-75
2022/01/21 14:03:04;;;;;;;1.77;0.50;;;5.90;1.00;;;;;;5031954;28;20958;-74
2022/01/21 14:05:42;;;;;;;3.27;1.27;;;;;;;;;;5038269;28;20439;-75
2022/01/21 14:08:11;;;;;;;0.50;0.10;;;5.90;1.00;;;;;;5036934;28;20435;-73
2022/01/21 14:10:39;;;;;;;2.10;1.53;;;5.90;1.00;;;;;;5032662;28;20456;-74
2022/01/21 14:13:07;;;;;;;1.93;0.73;;;5.90;1.00;;;;;;5031220;28;20475;-75
2022/01/21 14:15:36;;;;;;;0.63;0.40;;;5.80;1.00;;;;;;5031976;28;20970;-76
2022/01/21 14:18:04;;;;;;;1.70;1.60;;;5.70;1.00;;;;;;5049513;28;20453;-77
2022/01/21 14:20:35;;;;;;;0.70;0.53;;;5.70;1.00;;;;;;5052377;28;20474;-77
2022/01/21 14:23:04;;;;;;;0.50;0.10;;;5.70;1.00;;;;;;5053012;28;20439;-78
2022/01/21 14:25:32;;;;;;;0.50;0.10;;;5.80;1.00;;;;;;5054695;28;20482;-77
2022/01/21 14:28:00;;;;;;;0.50;0.10;;;5.70;1.00;;;;;;5054854;28;20856;-78
2022/01/21 14:30:28;;;;;;;0.60;0.30;;;5.80;1.00;;;;;;5052838;28;20464;-77